Time;durP1;ratioP1;P1;durP2;ratioP2;P2;SDS_P1;SDS_P2;PMS_P1;PMS_P2;Temp;Humidity;BMP_temperature;BMP_pressure;BME280_temperature;BME280_humidity;BME280_pressure;Samples;Min_cycle;Max_cycle;Signal;HPM_P1;HPM_P2
2021/07/30 00:01:38;;;;;;;4.78;3.55;;;16.60;99.90;;;;;;5021605;28;20045;-76
2021/07/30 00:04:04;;;;;;;5.03;4.40;;;16.60;99.90;;;;;;5015035;28;20426;-74
2021/07/30 00:06:30;;;;;;;7.55;3.70;;;16.60;99.90;;;;;;5014749;28;20155;-75
2021/07/30 00:08:55;;;;;;;4.28;3.85;;;16.60;99.90;;;;;;5006553;28;20199;-75
2021/07/30 00:11:21;;;;;;;6.63;4.40;;;16.50;99.90;;;;;;5029036;28;20034;-74
2021/07/30 00:13:46;;;;;;;6.30;3.88;;;16.50;99.90;;;;;;5034558;28;20013;-73
2021/07/30 00:16:12;;;;;;;5.40;4.13;;;16.50;99.90;;;;;;5022364;28;20513;-75
2021/07/30 00:18:37;;;;;;;6.28;4.85;;;16.50;99.90;;;;;;5019277;28;20501;-75
2021/07/30 00:21:04;;;;;;;4.45;4.00;;;16.40;99.90;;;;;;4997815;28;20489;-74
2021/07/30 00:23:29;;;;;;;5.05;3.92;;;16.50;99.90;;;;;;5013316;28;20030;-74
2021/07/30 00:25:55;;;;;;;4.72;3.63;;;16.40;99.90;;;;;;5015112;28;20053;-73
2021/07/30 00:28:21;;;;;;;6.60;3.70;;;16.40;99.90;;;;;;5016650;28;20501;-73
2021/07/30 00:30:46;;;;;;;4.90;3.92;;;16.40;99.90;;;;;;5027641;28;20034;-73
2021/07/30 00:33:12;;;;;;;4.93;4.35;;;16.40;99.90;;;;;;5005812;28;20026;-73
2021/07/30 00:35:38;;;;;;;5.97;3.80;;;16.30;99.90;;;;;;5025902;28;20030;-75
2021/07/30 00:38:03;;;;;;;8.18;4.40;;;16.30;99.90;;;;;;5000583;28;20030;-75
2021/07/30 00:40:29;;;;;;;6.93;4.32;;;16.30;99.90;;;;;;5015464;28;20508;-74
2021/07/30 00:42:54;;;;;;;6.13;4.30;;;16.30;99.90;;;;;;5014791;28;20101;-73
2021/07/30 00:45:21;;;;;;;5.85;4.18;;;16.20;1.00;;;;;;5015961;28;20037;-75
2021/07/30 00:47:47;;;;;;;5.20;3.63;;;16.20;1.00;;;;;;4997732;28;20072;-75
2021/07/30 00:50:15;;;;;;;4.53;3.80;;;16.10;1.00;;;;;;5015111;28;20520;-75
2021/07/30 00:52:41;;;;;;;6.35;4.20;;;16.10;1.00;;;;;;5014329;28;20482;-74
2021/07/30 00:55:08;;;;;;;5.72;3.65;;;16.10;1.00;;;;;;5010425;28;20038;-76
2021/07/30 00:57:34;;;;;;;4.70;4.05;;;16.10;1.00;;;;;;5015041;28;20065;-77
2021/07/30 01:00:00;;;;;;;4.70;3.20;;;16.10;1.00;;;;;;5014918;28;20076;-77
2021/07/30 01:02:26;;;;;;;6.55;4.20;;;16.00;1.00;;;;;;5014877;28;20029;-75
2021/07/30 01:04:51;;;;;;;4.72;4.07;;;16.00;1.00;;;;;;4997256;28;20026;-74
2021/07/30 01:07:17;;;;;;;5.22;4.07;;;16.00;1.00;;;;;;5015483;28;20390;-76
2021/07/30 01:09:43;;;;;;;5.32;4.70;;;15.90;1.00;;;;;;4996896;28;20034;-76
2021/07/30 01:12:10;;;;;;;4.90;4.50;;;15.90;1.00;;;;;;5008927;28;20038;-76
2021/07/30 01:14:36;;;;;;;5.43;3.67;;;15.90;1.00;;;;;;5014628;28;20025;-74
2021/07/30 01:17:01;;;;;;;7.45;3.88;;;15.90;1.00;;;;;;5014421;28;20501;-74
2021/07/30 01:19:27;;;;;;;4.80;3.47;;;15.90;1.00;;;;;;5014739;28;20018;-74
2021/07/30 01:21:54;;;;;;;7.00;3.97;;;15.90;1.00;;;;;;4996700;28;20064;-74
2021/07/30 01:24:21;;;;;;;5.43;3.47;;;15.90;1.00;;;;;;5044342;22;20037;-73
2021/07/30 01:26:48;;;;;;;6.35;4.45;;;15.90;1.00;;;;;;5014923;28;20101;-73
2021/07/30 01:29:13;;;;;;;6.10;4.28;;;15.80;1.00;;;;;;4997198;28;20030;-74
2021/07/30 01:31:39;;;;;;;4.50;4.10;;;15.80;1.00;;;;;;5016686;28;20041;-74
2021/07/30 01:34:05;;;;;;;5.03;4.28;;;15.80;1.00;;;;;;5021029;28;20481;-74
2021/07/30 01:36:30;;;;;;;6.10;4.60;;;15.70;1.00;;;;;;5035785;28;20033;-74
2021/07/30 01:38:56;;;;;;;5.75;4.68;;;15.80;1.00;;;;;;5026377;28;20504;-73
2021/07/30 01:41:23;;;;;;;6.28;4.40;;;15.70;1.00;;;;;;5019494;28;20084;-74
2021/07/30 01:43:49;;;;;;;6.93;4.60;;;15.60;1.00;;;;;;5030107;28;20064;-74
2021/07/30 01:46:14;;;;;;;6.20;4.30;;;15.60;1.00;;;;;;5013814;28;20062;-74
2021/07/30 01:48:40;;;;;;;5.07;4.57;;;15.60;1.00;;;;;;5013650;28;20438;-74
2021/07/30 01:51:07;;;;;;;6.82;4.55;;;15.60;1.00;;;;;;5021618;28;20280;-73
2021/07/30 01:53:33;;;;;;;10.48;5.40;;;15.50;1.00;;;;;;5021059;28;20071;-74
2021/07/30 01:56:07;;;;;;;8.35;4.55;;;15.50;1.00;;;;;;5004921;28;20026;-74
2021/07/30 01:58:35;;;;;;;7.25;4.68;;;15.50;1.00;;;;;;5002637;28;20021;-75
2021/07/30 02:01:02;;;;;;;5.38;4.40;;;15.50;1.00;;;;;;5014241;28;20061;-75
2021/07/30 02:03:28;;;;;;;8.95;5.43;;;15.50;1.00;;;;;;5013233;28;20034;-75
2021/07/30 02:05:53;;;;;;;9.95;4.38;;;15.40;1.00;;;;;;5000088;28;20067;-74
2021/07/30 02:08:19;;;;;;;4.60;4.20;;;15.40;1.00;;;;;;5022350;28;20061;-74
2021/07/30 02:10:45;;;;;;;4.80;4.28;;;15.40;1.00;;;;;;5032720;28;20025;-73
2021/07/30 02:16:05;;;;;;;6.65;4.20;;;15.40;1.00;;;;;;4978881;28;20097;-75
2021/07/30 02:18:31;;;;;;;5.40;4.38;;;15.30;1.00;;;;;;5034556;28;20038;-75
2021/07/30 02:20:56;;;;;;;5.40;3.65;;;15.30;1.00;;;;;;5013764;28;20141;-75
2021/07/30 02:23:22;;;;;;;5.30;3.67;;;15.40;1.00;;;;;;5012819;28;20509;-75
2021/07/30 02:25:47;;;;;;;5.43;3.65;;;15.30;1.00;;;;;;4995127;28;20095;-75
2021/07/30 02:28:13;;;;;;;8.25;4.70;;;15.20;1.00;;;;;;5012879;28;20029;-74
2021/07/30 02:30:39;;;;;;;4.75;4.30;;;15.30;1.00;;;;;;5027607;28;20052;-75
2021/07/30 02:33:04;;;;;;;4.75;4.28;;;15.20;1.00;;;;;;5013475;28;20025;-77
2021/07/30 02:35:30;;;;;;;4.65;4.10;;;15.20;1.00;;;;;;5002558;28;20044;-75
2021/07/30 02:37:55;;;;;;;7.60;5.25;;;15.20;1.00;;;;;;5017628;28;20077;-75
2021/07/30 02:40:21;;;;;;;5.85;4.75;;;15.20;1.00;;;;;;5020373;28;20512;-76
2021/07/30 02:42:46;;;;;;;4.22;3.83;;;15.10;1.00;;;;;;5029330;28;20116;-74
2021/07/30 02:45:12;;;;;;;7.85;4.70;;;15.10;1.00;;;;;;5032397;28;20501;-74
2021/07/30 02:47:37;;;;;;;7.10;4.63;;;15.10;1.00;;;;;;5001449;28;20497;-74
2021/07/30 02:50:04;;;;;;;7.10;5.15;;;15.10;1.00;;;;;;5012842;28;20084;-74
2021/07/30 02:52:30;;;;;;;5.88;5.13;;;15.10;1.00;;;;;;5012370;28;20022;-73
2021/07/30 02:54:55;;;;;;;8.52;4.85;;;15.10;1.00;;;;;;5017005;28;20367;-76
2021/07/30 02:57:21;;;;;;;5.55;4.97;;;15.10;1.00;;;;;;5029011;28;20022;-74
2021/07/30 02:59:46;;;;;;;6.93;5.82;;;15.00;1.00;;;;;;5020075;28;20026;-74
2021/07/30 03:02:12;;;;;;;7.25;4.97;;;15.00;1.00;;;;;;5019945;28;20531;-74
2021/07/30 03:04:38;;;;;;;5.28;4.78;;;15.00;1.00;;;;;;5015829;28;20117;-75
2021/07/30 03:07:04;;;;;;;5.45;4.93;;;15.00;1.00;;;;;;5016714;28;20104;-76
2021/07/30 03:09:30;;;;;;;6.75;4.93;;;14.90;1.00;;;;;;5023341;28;20033;-75
2021/07/30 03:11:55;;;;;;;9.88;5.47;;;14.90;1.00;;;;;;5031694;28;20018;-75
2021/07/30 03:14:21;;;;;;;8.98;5.85;;;14.90;1.00;;;;;;5019477;28;20034;-73
2021/07/30 03:16:46;;;;;;;15.98;5.15;;;14.90;1.00;;;;;;5012856;28;20034;-77
2021/07/30 03:19:12;;;;;;;7.68;5.05;;;14.90;1.00;;;;;;5002921;28;20546;-76
2021/07/30 03:21:39;;;;;;;7.13;5.30;;;14.90;1.00;;;;;;5019515;28;20520;-73
2021/07/30 03:24:05;;;;;;;10.77;5.10;;;14.80;1.00;;;;;;5012199;28;20041;-73
2021/07/30 03:26:32;;;;;;;5.40;4.90;;;14.80;1.00;;;;;;5019774;28;20261;-74
2021/07/30 03:28:57;;;;;;;7.88;5.32;;;14.80;1.00;;;;;;5024178;28;20048;-74
2021/07/30 03:31:23;;;;;;;6.53;4.65;;;14.80;1.00;;;;;;5024815;28;20485;-73
2021/07/30 03:33:49;;;;;;;8.25;5.15;;;14.70;1.00;;;;;;4995136;28;20120;-75
2021/07/30 03:36:14;;;;;;;9.98;5.03;;;14.60;1.00;;;;;;5017813;28;20444;-75
2021/07/30 03:38:40;;;;;;;7.90;5.03;;;14.70;1.00;;;;;;5029724;28;20037;-74
2021/07/30 03:41:05;;;;;;;8.02;5.70;;;14.70;1.00;;;;;;5012885;28;20038;-72
2021/07/30 03:43:32;;;;;;;11.77;5.43;;;14.60;1.00;;;;;;5014750;28;20067;-74
2021/07/30 03:45:57;;;;;;;15.10;5.53;;;14.60;1.00;;;;;;5017800;28;20417;-75
2021/07/30 03:48:23;;;;;;;8.88;5.53;;;14.60;1.00;;;;;;4998754;28;20029;-75
2021/07/30 03:50:49;;;;;;;14.80;6.43;;;14.60;1.00;;;;;;5025507;28;20037;-75
2021/07/30 03:53:14;;;;;;;10.40;6.18;;;14.60;1.00;;;;;;5032771;28;20025;-77
2021/07/30 03:55:40;;;;;;;6.30;5.13;;;14.60;1.00;;;;;;5042165;28;20021;-74
2021/07/30 03:58:06;;;;;;;12.82;5.85;;;14.60;1.00;;;;;;5044625;28;20041;-73
2021/07/30 04:00:31;;;;;;;10.80;6.75;;;14.60;1.00;;;;;;5035905;28;20370;-73
2021/07/30 04:02:57;;;;;;;11.98;5.30;;;14.60;1.00;;;;;;5022657;28;20047;-74
2021/07/30 04:05:22;;;;;;;7.35;5.20;;;14.60;1.00;;;;;;5029236;28;20489;-74
2021/07/30 04:07:48;;;;;;;10.05;5.82;;;14.60;1.00;;;;;;5027582;28;20030;-75
2021/07/30 04:10:13;;;;;;;9.80;5.80;;;14.60;1.00;;;;;;5029082;28;20026;-74
2021/07/30 04:12:39;;;;;;;8.23;6.00;;;14.70;1.00;;;;;;5024283;28;20481;-73
2021/07/30 04:15:05;;;;;;;12.50;6.55;;;14.70;1.00;;;;;;5022763;28;20551;-75
2021/07/30 04:17:30;;;;;;;10.05;6.30;;;14.80;1.00;;;;;;5020065;28;20025;-74
2021/07/30 04:19:56;;;;;;;12.35;5.68;;;14.80;1.00;;;;;;5035894;28;20049;-73
2021/07/30 04:22:22;;;;;;;13.13;5.93;;;14.90;1.00;;;;;;5031342;28;20450;-74
2021/07/30 04:24:47;;;;;;;11.02;5.97;;;14.90;1.00;;;;;;4999190;28;20034;-74
2021/07/30 04:27:13;;;;;;;12.52;6.43;;;14.90;1.00;;;;;;5000006;28;20030;-73
2021/07/30 04:29:42;;;;;;;9.15;5.97;;;15.00;1.00;;;;;;5027143;28;20045;-73
2021/07/30 04:32:12;;;;;;;9.85;6.47;;;15.20;1.00;;;;;;5036782;28;20029;-73
2021/07/30 04:34:38;;;;;;;11.68;7.13;;;15.30;1.00;;;;;;5026133;28;20146;-73
2021/07/30 04:37:05;;;;;;;10.50;6.25;;;15.40;1.00;;;;;;5022602;28;20108;-73
2021/07/30 04:39:30;;;;;;;6.40;5.72;;;15.50;1.00;;;;;;5017090;28;20112;-75
2021/07/30 04:41:56;;;;;;;16.88;6.43;;;15.40;1.00;;;;;;5027733;28;20514;-73
2021/07/30 04:44:22;;;;;;;11.90;6.47;;;15.50;1.00;;;;;;5015338;28;20041;-74
2021/07/30 04:46:47;;;;;;;8.95;6.38;;;15.50;1.00;;;;;;5025409;28;20057;-73
2021/07/30 04:49:13;;;;;;;13.65;6.35;;;15.60;1.00;;;;;;5015849;28;20056;-72
2021/07/30 04:51:38;;;;;;;9.90;6.15;;;15.80;1.00;;;;;;5032797;28;20053;-73
2021/07/30 04:54:04;;;;;;;8.98;5.80;;;15.80;1.00;;;;;;5030161;28;20014;-73
2021/07/30 04:56:29;;;;;;;8.68;5.90;;;15.90;1.00;;;;;;5035801;28;20533;-73
2021/07/30 04:58:55;;;;;;;9.68;6.80;;;16.10;1.00;;;;;;5039772;28;20535;-73
2021/07/30 05:01:21;;;;;;;10.05;6.75;;;16.20;1.00;;;;;;5022071;28;20037;-74
2021/07/30 05:03:46;;;;;;;6.60;5.45;;;16.40;1.00;;;;;;5022392;28;20030;-74
2021/07/30 05:06:16;;;;;;;19.33;6.55;;;16.50;1.00;;;;;;5019046;28;20528;-74
2021/07/30 05:08:42;;;;;;;8.30;5.30;;;16.80;1.00;;;;;;5015318;28;20410;-75
2021/07/30 05:11:10;;;;;;;9.20;4.80;;;17.70;99.90;;;;;;4997325;28;20060;-74
2021/07/30 05:13:36;;;;;;;9.18;4.72;;;18.50;99.90;;;;;;5015453;28;20026;-75
2021/07/30 05:16:09;;;;;;;8.18;4.60;;;19.00;1.00;;;;;;5015018;28;20401;-74
2021/07/30 05:18:35;;;;;;;7.45;4.85;;;19.50;99.90;;;;;;5030351;28;20041;-74
2021/07/30 05:21:07;;;;;;;9.13;5.22;;;20.00;99.90;;;;;;5033605;28;21427;-74
2021/07/30 05:23:33;;;;;;;6.35;4.60;;;20.10;99.90;;;;;;5034205;28;20029;-74
2021/07/30 05:26:00;;;;;;;9.05;4.15;;;20.40;99.90;;;;;;5031896;28;20033;-74
2021/07/30 05:28:26;;;;;;;10.80;5.35;;;21.90;99.90;;;;;;5022797;28;20030;-76
2021/07/30 05:30:54;;;;;;;6.18;5.07;;;22.20;99.90;;;;;;5014678;28;20385;-74
2021/07/30 05:33:20;;;;;;;6.78;4.75;;;21.70;99.90;;;;;;5018667;28;20020;-75
2021/07/30 05:35:46;;;;;;;8.60;4.15;;;22.30;99.90;;;;;;5025424;28;20021;-74
2021/07/30 05:38:11;;;;;;;8.50;4.55;;;23.30;99.90;;;;;;5026403;28;20099;-75
2021/07/30 05:40:37;;;;;;;9.57;4.32;;;23.50;99.90;;;;;;5012908;28;20029;-74
2021/07/30 05:43:03;;;;;;;5.18;4.43;;;23.40;99.90;;;;;;5014540;28;20516;-74
2021/07/30 05:45:28;;;;;;;5.78;4.75;;;23.70;99.90;;;;;;5015650;28;20345;-74
2021/07/30 05:47:54;;;;;;;9.85;5.20;;;24.00;99.90;;;;;;5023586;28;20040;-76
2021/07/30 05:50:19;;;;;;;8.15;4.75;;;22.60;99.90;;;;;;5014771;28;20112;-75
2021/07/30 05:52:45;;;;;;;8.10;4.53;;;22.30;99.90;;;;;;5018412;28;20109;-74
2021/07/30 05:55:11;;;;;;;6.22;4.47;;;22.00;99.90;;;;;;5010097;28;20061;-75
2021/07/30 05:57:36;;;;;;;6.05;4.53;;;21.80;99.90;;;;;;5025410;28;20036;-75
2021/07/30 06:00:04;;;;;;;9.30;4.20;;;21.80;99.90;;;;;;5030975;28;20037;-73
2021/07/30 06:02:30;;;;;;;6.88;4.43;;;21.80;99.90;;;;;;5017462;28;20029;-74
2021/07/30 06:04:56;;;;;;;5.50;4.38;;;21.80;99.90;;;;;;5035599;28;20025;-74
2021/07/30 06:07:21;;;;;;;4.70;4.00;;;22.20;99.90;;;;;;5036028;28;20057;-75
2021/07/30 06:09:47;;;;;;;7.97;4.97;;;22.10;99.90;;;;;;5033457;28;20617;-74
2021/07/30 06:12:12;;;;;;;8.43;4.07;;;21.90;99.90;;;;;;5034331;28;20560;-74
2021/07/30 06:14:38;;;;;;;6.35;4.63;;;21.90;99.90;;;;;;5034063;28;20036;-74
2021/07/30 06:17:04;;;;;;;5.13;4.00;;;22.10;99.90;;;;;;5013360;28;20482;-73
2021/07/30 06:19:29;;;;;;;7.00;4.10;;;22.00;99.90;;;;;;5014529;28;20371;-74
2021/07/30 06:21:56;;;;;;;9.35;4.30;;;22.00;99.90;;;;;;5014555;28;20037;-77
2021/07/30 06:24:22;;;;;;;7.78;5.63;;;21.30;99.90;;;;;;5017149;28;20517;-74
2021/07/30 06:26:48;;;;;;;7.32;5.43;;;21.60;99.90;;;;;;5027624;28;20029;-75
2021/07/30 06:29:13;;;;;;;6.57;4.90;;;21.80;99.90;;;;;;5015979;28;20033;-74
2021/07/30 06:31:39;;;;;;;9.52;6.15;;;21.20;99.90;;;;;;5020234;28;20363;-75
2021/07/30 06:34:04;;;;;;;8.90;5.45;;;21.00;99.90;;;;;;5014775;28;20033;-74
2021/07/30 06:36:30;;;;;;;6.53;5.13;;;20.80;99.90;;;;;;5020891;28;20053;-74
2021/07/30 06:38:56;;;;;;;8.27;5.15;;;20.60;99.90;;;;;;5028840;28;20528;-74
2021/07/30 06:41:21;;;;;;;8.48;6.18;;;20.40;99.90;;;;;;5031434;28;20111;-74
2021/07/30 06:43:47;;;;;;;9.38;5.78;;;20.20;99.90;;;;;;5033020;28;20033;-73
2021/07/30 06:46:12;;;;;;;8.63;6.13;;;20.10;99.90;;;;;;5032804;28;20445;-75
2021/07/30 06:48:38;;;;;;;5.95;5.35;;;20.00;99.90;;;;;;5033378;28;20041;-75
2021/07/30 06:51:04;;;;;;;6.55;5.53;;;20.00;99.90;;;;;;5020693;28;20409;-74
2021/07/30 06:53:29;;;;;;;8.35;5.68;;;20.20;99.90;;;;;;5022065;28;20029;-73
2021/07/30 06:55:55;;;;;;;10.48;5.75;;;20.30;99.90;;;;;;5036829;28;20108;-74
2021/07/30 06:58:20;;;;;;;6.60;5.25;;;20.50;99.90;;;;;;5029631;28;20024;-74
2021/07/30 07:00:46;;;;;;;8.13;5.05;;;20.50;99.90;;;;;;5020290;28;20037;-74
2021/07/30 07:03:11;;;;;;;7.25;5.88;;;20.60;99.90;;;;;;5025558;28;20033;-74
2021/07/30 07:05:37;;;;;;;8.35;4.88;;;20.50;99.90;;;;;;5030610;28;20033;-74
2021/07/30 07:08:03;;;;;;;6.30;4.82;;;20.50;99.90;;;;;;5023688;28;20042;-74
2021/07/30 07:10:29;;;;;;;8.68;4.90;;;20.80;99.90;;;;;;5036707;28;20397;-74
2021/07/30 07:12:54;;;;;;;14.50;5.65;;;20.90;99.90;;;;;;5027395;28;20001;-75
2021/07/30 07:15:20;;;;;;;8.43;5.13;;;20.90;99.90;;;;;;5044980;28;20037;-74
2021/07/30 07:17:45;;;;;;;9.75;5.57;;;21.10;99.90;;;;;;5017086;28;20022;-74
2021/07/30 07:20:11;;;;;;;5.45;4.75;;;21.30;99.90;;;;;;5049467;28;20017;-74
2021/07/30 07:22:37;;;;;;;7.95;5.65;;;21.30;99.90;;;;;;5050810;28;20072;-74
2021/07/30 07:25:02;;;;;;;5.70;4.88;;;21.50;99.90;;;;;;5081588;22;20045;-76
2021/07/30 07:27:28;;;;;;;6.22;5.03;;;21.30;99.90;;;;;;5052695;28;20017;-75
2021/07/30 07:29:54;;;;;;;8.13;5.40;;;21.20;99.90;;;;;;5058335;28;20029;-74
2021/07/30 07:32:19;;;;;;;6.60;5.10;;;21.10;99.90;;;;;;5052323;28;20022;-75
2021/07/30 07:34:45;;;;;;;6.03;4.72;;;21.60;99.90;;;;;;5043659;28;20032;-75
2021/07/30 07:37:10;;;;;;;11.25;5.60;;;22.00;99.90;;;;;;5021003;28;20102;-75
2021/07/30 07:39:36;;;;;;;10.80;4.78;;;21.90;99.90;;;;;;5042040;28;20056;-75
2021/07/30 07:42:01;;;;;;;9.45;5.57;;;21.80;99.90;;;;;;5050297;28;20025;-76
2021/07/30 07:44:27;;;;;;;5.07;4.57;;;21.90;99.90;;;;;;5035940;28;20022;-76
2021/07/30 07:46:53;;;;;;;6.72;4.70;;;22.20;99.90;;;;;;5040539;28;20119;-76
2021/07/30 07:49:18;;;;;;;7.70;4.35;;;22.20;99.90;;;;;;5043926;28;20036;-75
2021/07/30 07:51:44;;;;;;;5.55;3.80;;;22.60;99.90;;;;;;5045218;28;20473;-76
2021/07/30 07:54:09;;;;;;;10.07;3.80;;;22.50;99.90;;;;;;5044776;28;20048;-76
2021/07/30 07:56:35;;;;;;;4.70;3.40;;;22.60;99.90;;;;;;5036353;28;20053;-76
2021/07/30 07:59:01;;;;;;;6.43;3.20;;;22.60;99.90;;;;;;5023603;28;20029;-75
2021/07/30 08:01:27;;;;;;;4.68;3.63;;;22.70;99.90;;;;;;5049809;28;20485;-76
2021/07/30 08:03:53;;;;;;;5.95;3.85;;;22.80;99.90;;;;;;5048092;28;20146;-76
2021/07/30 08:06:20;;;;;;;10.45;4.10;;;23.00;99.90;;;;;;5025475;28;20453;-77
2021/07/30 08:08:47;;;;;;;4.55;3.40;;;23.10;99.90;;;;;;5044792;28;20032;-75
2021/07/30 08:11:12;;;;;;;5.30;3.63;;;23.30;99.90;;;;;;5044932;28;20385;-75
2021/07/30 08:13:39;;;;;;;7.03;3.60;;;23.40;99.90;;;;;;5027656;28;20033;-74
2021/07/30 08:16:04;;;;;;;9.30;3.63;;;23.60;99.90;;;;;;5035677;28;20029;-75
2021/07/30 08:18:30;;;;;;;3.67;3.38;;;23.70;99.90;;;;;;5037932;28;20029;-76
2021/07/30 08:20:56;;;;;;;7.32;3.30;;;23.60;99.90;;;;;;5019679;28;20111;-75
2021/07/30 08:23:21;;;;;;;3.97;3.58;;;23.90;99.90;;;;;;5034850;28;20040;-74
2021/07/30 08:25:47;;;;;;;8.80;3.70;;;24.10;99.90;;;;;;5018695;28;20381;-75
2021/07/30 08:28:13;;;;;;;6.47;3.40;;;24.20;99.90;;;;;;5024186;28;20120;-75
2021/07/30 08:30:42;;;;;;;3.80;3.28;;;24.20;99.90;;;;;;5038475;28;20036;-75
2021/07/30 08:33:07;;;;;;;5.82;5.25;;;24.30;99.90;;;;;;5054080;28;20036;-76
2021/07/30 08:35:34;;;;;;;10.73;6.25;;;24.40;99.90;;;;;;5054629;28;20428;-75
2021/07/30 08:38:00;;;;;;;7.10;5.18;;;24.60;99.90;;;;;;5054983;28;20020;-74
2021/07/30 08:40:31;;;;;;;5.07;4.57;;;24.70;99.90;;;;;;5018204;28;20034;-75
2021/07/30 08:42:56;;;;;;;;;;;24.50;99.90;;;;;;5051198;28;20093;-75
2021/07/30 08:45:22;;;;;;;3.40;3.10;;;24.50;99.90;;;;;;5051103;28;20012;-75
2021/07/30 08:47:50;;;;;;;4.38;3.40;;;24.90;99.90;;;;;;5057991;28;20013;-75
2021/07/30 08:50:15;;;;;;;8.00;3.15;;;24.90;99.90;;;;;;5053842;28;20103;-76
2021/07/30 08:52:42;;;;;;;4.10;3.70;;;25.00;99.90;;;;;;5051068;28;20051;-76
2021/07/30 08:55:09;;;;;;;3.35;3.05;;;25.00;99.90;;;;;;5041455;28;20381;-75
2021/07/30 08:57:35;;;;;;;5.63;3.50;;;24.90;99.50;;;;;;5041975;28;20061;-75
2021/07/30 09:00:14;;;;;;;6.00;3.58;;;25.20;99.90;;;;;;5040011;28;20068;-74
2021/07/30 09:02:41;;;;;;;5.13;3.00;;;25.30;99.00;;;;;;5036345;28;20026;-75
2021/07/30 09:05:26;;;;;;;3.67;3.30;;;25.20;99.70;;;;;;5034296;28;20025;-75
2021/07/30 09:07:52;;;;;;;3.65;3.35;;;25.30;99.40;;;;;;5052663;28;20028;-77
2021/07/30 09:10:34;;;;;;;4.90;3.35;;;25.40;98.70;;;;;;5047031;28;20040;-77
2021/07/30 09:13:22;;;;;;;4.05;3.65;;;25.60;98.60;;;;;;5047633;28;20476;-76
2021/07/30 09:16:09;;;;;;;5.50;3.60;;;25.40;98.60;;;;;;5050944;28;20025;-76
2021/07/30 09:18:42;;;;;;;4.78;3.10;;;25.60;98.50;;;;;;5040639;28;20080;-76
2021/07/30 09:21:15;;;;;;;3.80;3.50;;;25.50;98.00;;;;;;5062840;28;20025;-75
2021/07/30 09:24:00;;;;;;;3.33;3.03;;;25.70;98.40;;;;;;5057747;28;20661;-75
2021/07/30 09:26:39;;;;;;;3.08;2.80;;;25.80;98.30;;;;;;5060565;28;20210;-74
2021/07/30 09:29:24;;;;;;;3.58;3.28;;;25.70;98.50;;;;;;5040022;28;20034;-77
2021/07/30 09:32:04;;;;;;;3.65;3.30;;;25.60;97.40;;;;;;5021124;28;20045;-77
2021/07/30 09:34:35;;;;;;;3.80;3.40;;;25.80;98.60;;;;;;5039334;28;20414;-77
2021/07/30 09:37:10;;;;;;;;;;;25.80;98.30;;;;;;5035754;28;20029;-77
2021/07/30 09:39:39;;;;;;;3.85;3.55;;;26.10;98.10;;;;;;5035230;28;19909;-76
2021/07/30 09:42:08;;;;;;;4.78;3.15;;;26.00;97.50;;;;;;5042639;28;21343;-77
2021/07/30 09:44:47;;;;;;;5.63;4.03;;;26.00;97.60;;;;;;5038480;28;20026;-76
2021/07/30 09:47:15;;;;;;;3.97;3.55;;;26.10;97.60;;;;;;5036123;28;20052;-76
2021/07/30 09:49:47;;;;;;;6.45;3.30;;;26.30;97.80;;;;;;5043253;28;20108;-76
2021/07/30 09:52:21;;;;;;;5.75;3.55;;;26.30;97.50;;;;;;5018017;28;20448;-76
2021/07/30 09:54:58;;;;;;;4.05;3.58;;;26.40;97.50;;;;;;5033928;28;20393;-76
2021/07/30 09:57:26;;;;;;;3.42;3.13;;;26.40;97.50;;;;;;5033530;28;20026;-76
2021/07/30 09:59:56;;;;;;;4.15;3.75;;;26.60;97.40;;;;;;5015543;28;20025;-75
2021/07/30 10:02:22;;;;;;;4.60;4.18;;;26.50;97.20;;;;;;5048842;28;20056;-76
2021/07/30 10:04:50;;;;;;;3.47;3.15;;;26.50;97.50;;;;;;5033016;28;20144;-75
2021/07/30 10:07:18;;;;;;;4.15;3.75;;;26.50;96.60;;;;;;5035332;28;20040;-76
2021/07/30 10:09:53;;;;;;;4.20;3.80;;;26.40;97.30;;;;;;5018017;28;20025;-75
2021/07/30 10:12:19;;;;;;;3.70;3.33;;;26.50;97.40;;;;;;5015992;28;20497;-76
2021/07/30 10:14:45;;;;;;;5.00;3.28;;;26.80;97.50;;;;;;5033134;28;20393;-76
2021/07/30 10:17:14;;;;;;;3.97;3.67;;;27.00;96.80;;;;;;5033122;28;20390;-76
2021/07/30 10:19:40;;;;;;;5.10;3.97;;;27.00;96.40;;;;;;5039998;28;20091;-76
2021/07/30 10:22:07;;;;;;;6.45;3.60;;;27.00;96.90;;;;;;5035590;28;20029;-76
2021/07/30 10:24:39;;;;;;;4.20;3.42;;;27.20;96.40;;;;;;5045310;28;20044;-76
2021/07/30 10:27:07;;;;;;;4.13;3.38;;;27.10;95.90;;;;;;5051103;28;20013;-75
2021/07/30 10:30:02;;;;;;;4.15;3.50;;;26.90;96.70;;;;;;5049892;28;20036;-76
2021/07/30 10:32:59;;;;;;;4.57;3.90;;;27.00;96.60;;;;;;5033974;28;20089;-75
2021/07/30 10:35:28;;;;;;;5.40;3.70;;;27.00;96.60;;;;;;5041138;28;20029;-76
2021/07/30 10:38:19;;;;;;;3.53;3.17;;;26.90;96.80;;;;;;5037550;28;20026;-76
2021/07/30 10:41:06;;;;;;;6.38;3.90;;;26.70;96.30;;;;;;5035867;28;20081;-76
2021/07/30 10:43:52;;;;;;;7.50;3.90;;;26.80;96.80;;;;;;5031327;28;20025;-75
2021/07/30 10:46:19;;;;;;;6.47;3.95;;;26.80;96.60;;;;;;5063392;28;20040;-76
2021/07/30 10:48:50;;;;;;;4.18;3.47;;;26.70;96.60;;;;;;5070884;28;20069;-75
2021/07/30 10:51:21;;;;;;;3.92;3.50;;;26.80;96.70;;;;;;5058053;28;20021;-76
2021/07/30 10:53:53;;;;;;;;;;;26.90;96.60;;;;;;5045338;28;20028;-76
2021/07/30 10:56:22;;;;;;;3.42;3.13;;;27.00;96.50;;;;;;5040537;28;20386;-76
2021/07/30 10:58:50;;;;;;;4.07;3.67;;;27.00;96.00;;;;;;5052490;28;20021;-75
2021/07/30 11:01:19;;;;;;;4.65;3.67;;;26.60;95.80;;;;;;5055837;28;20025;-75
2021/07/30 11:04:02;;;;;;;6.15;4.13;;;26.30;96.20;;;;;;5023405;28;20025;-76
2021/07/30 11:06:52;;;;;;;3.83;3.45;;;26.10;96.30;;;;;;5033023;28;20066;-76
2021/07/30 11:09:18;;;;;;;4.47;3.63;;;26.00;96.50;;;;;;5011944;28;20040;-76
2021/07/30 11:11:51;;;;;;;5.63;3.40;;;26.00;96.40;;;;;;5051787;28;20021;-76
2021/07/30 11:14:27;;;;;;;5.32;3.95;;;25.80;96.60;;;;;;5048928;28;20021;-76
2021/07/30 11:16:52;;;;;;;6.68;3.97;;;25.80;97.10;;;;;;5032645;28;20048;-76
2021/07/30 11:19:21;;;;;;;4.88;3.47;;;26.10;96.70;;;;;;5040787;28;20438;-75
2021/07/30 11:21:47;;;;;;;4.68;4.28;;;26.20;96.60;;;;;;5041009;28;20037;-75
2021/07/30 11:24:13;;;;;;;4.97;3.80;;;26.30;96.20;;;;;;5045414;28;20033;-75
2021/07/30 11:26:40;;;;;;;3.70;3.20;;;26.40;96.10;;;;;;5034736;28;20033;-76
2021/07/30 11:29:14;;;;;;;4.53;3.80;;;26.40;96.40;;;;;;5033667;28;20105;-76
2021/07/30 11:32:06;;;;;;;4.88;4.03;;;26.40;95.80;;;;;;5015688;28;20354;-75
2021/07/30 11:34:36;;;;;;;4.32;3.97;;;26.40;95.90;;;;;;5033414;28;20030;-75
2021/07/30 11:37:11;;;;;;;6.03;3.50;;;26.90;95.70;;;;;;5023527;28;20030;-75
2021/07/30 11:39:43;;;;;;;3.95;3.40;;;26.70;95.50;;;;;;5033240;28;20591;-76
2021/07/30 11:42:10;;;;;;;4.68;3.70;;;26.90;95.80;;;;;;5047793;28;20033;-76
2021/07/30 11:44:43;;;;;;;3.70;3.28;;;26.70;95.60;;;;;;5034465;28;20112;-76
2021/07/30 11:47:09;;;;;;;4.10;3.60;;;26.90;95.70;;;;;;5033545;28;20034;-76
2021/07/30 11:49:36;;;;;;;4.50;3.05;;;26.90;95.60;;;;;;5017489;28;20030;-76
2021/07/30 11:52:04;;;;;;;3.95;3.65;;;27.20;95.90;;;;;;5041092;28;20021;-76
2021/07/30 11:54:30;;;;;;;4.40;3.65;;;26.90;95.50;;;;;;5051238;28;20385;-76
2021/07/30 11:56:57;;;;;;;3.63;3.22;;;27.40;95.20;;;;;;5052396;28;20507;-76
2021/07/30 11:59:23;;;;;;;4.97;3.40;;;27.50;94.80;;;;;;5034712;28;20434;-76
2021/07/30 12:02:01;;;;;;;3.50;3.20;;;27.70;94.40;;;;;;5051324;28;20044;-75
2021/07/30 12:04:27;;;;;;;3.67;3.38;;;27.90;94.30;;;;;;5048217;28;20029;-78
2021/07/30 12:06:55;;;;;;;5.13;4.03;;;28.10;94.30;;;;;;5034783;28;20162;-76
2021/07/30 12:09:21;;;;;;;4.30;3.90;;;28.00;94.20;;;;;;5037942;28;20036;-76
2021/07/30 12:11:55;;;;;;;4.07;3.67;;;28.10;93.90;;;;;;5037081;28;20029;-75
2021/07/30 12:14:25;;;;;;;3.47;3.17;;;27.90;94.50;;;;;;5062410;28;20033;-76
2021/07/30 12:16:51;;;;;;;3.60;3.30;;;27.60;94.70;;;;;;5058601;28;20025;-76
2021/07/30 12:19:33;;;;;;;3.92;3.63;;;27.70;94.60;;;;;;5056654;28;20029;-76
2021/07/30 12:22:05;;;;;;;7.15;4.03;;;27.90;94.60;;;;;;5036231;28;20017;-76
2021/07/30 12:24:33;;;;;;;4.28;3.47;;;28.50;93.80;;;;;;5030328;28;20030;-76
2021/07/30 12:27:18;;;;;;;4.30;3.63;;;28.50;93.50;;;;;;5042357;28;20013;-76
2021/07/30 12:29:47;;;;;;;4.53;3.72;;;27.90;94.10;;;;;;5043937;28;20041;-76
2021/07/30 12:32:15;;;;;;;5.45;3.50;;;27.70;94.30;;;;;;5040848;28;20354;-77
2021/07/30 12:34:53;;;;;;;4.80;4.40;;;27.90;94.80;;;;;;5044210;28;20030;-76
2021/07/30 12:37:19;;;;;;;4.07;3.53;;;27.90;94.50;;;;;;5041255;28;20116;-77
2021/07/30 12:39:49;;;;;;;3.80;3.50;;;28.10;94.20;;;;;;5036380;28;20108;-77
2021/07/30 12:42:32;;;;;;;4.80;3.60;;;27.80;94.40;;;;;;5037071;28;20060;-74
2021/07/30 12:45:11;;;;;;;3.90;3.60;;;27.60;94.00;;;;;;5029764;28;20021;-77
2021/07/30 12:47:39;;;;;;;3.88;3.58;;;27.40;94.50;;;;;;5056245;28;20048;-78
2021/07/30 12:50:25;;;;;;;5.85;4.18;;;27.40;94.50;;;;;;5055779;28;20029;-76
2021/07/30 12:53:03;;;;;;;4.63;3.03;;;27.50;94.30;;;;;;5039777;28;20049;-77
2021/07/30 12:55:28;;;;;;;3.90;3.60;;;27.60;94.40;;;;;;5041168;28;20025;-76
2021/07/30 12:57:54;;;;;;;3.95;3.42;;;27.40;94.50;;;;;;5019745;28;20024;-77